sensor_id;sensor_type;location;lat;lon;timestamp;P1;durP1;ratioP1;P2;durP2;ratioP2
78877;SDS011;68257;43.514;1.498;2023-11-21T00:01:00;12.63;;;1.98;;
78877;SDS011;68257;43.514;1.498;2023-11-21T00:03:29;12.68;;;1.83;;
78877;SDS011;68257;43.514;1.498;2023-11-21T00:05:54;12.52;;;2.03;;
78877;SDS011;68257;43.514;1.498;2023-11-21T00:08:20;14.40;;;1.70;;
78877;SDS011;68257;43.514;1.498;2023-11-21T00:10:45;13.43;;;1.77;;
78877;SDS011;68257;43.514;1.498;2023-11-21T00:13:11;12.70;;;1.63;;
78877;SDS011;68257;43.514;1.498;2023-11-21T00:15:37;12.63;;;2.13;;
78877;SDS011;68257;43.514;1.498;2023-11-21T00:18:03;10.63;;;1.70;;
78877;SDS011;68257;43.514;1.498;2023-11-21T00:20:28;12.00;;;1.85;;
78877;SDS011;68257;43.514;1.498;2023-11-21T00:22:53;7.93;;;1.30;;
78877;SDS011;68257;43.514;1.498;2023-11-21T00:25:19;10.80;;;1.50;;
78877;SDS011;68257;43.514;1.498;2023-11-21T00:27:45;9.43;;;2.40;;
78877;SDS011;68257;43.514;1.498;2023-11-21T00:30:10;8.33;;;1.90;;
78877;SDS011;68257;43.514;1.498;2023-11-21T00:32:36;11.45;;;2.08;;
78877;SDS011;68257;43.514;1.498;2023-11-21T00:35:02;10.00;;;1.98;;
78877;SDS011;68257;43.514;1.498;2023-11-21T00:37:28;8.03;;;1.60;;
78877;SDS011;68257;43.514;1.498;2023-11-21T00:39:53;10.82;;;1.90;;
78877;SDS011;68257;43.514;1.498;2023-11-21T00:42:18;6.80;;;1.40;;
78877;SDS011;68257;43.514;1.498;2023-11-21T00:44:44;8.70;;;1.60;;
78877;SDS011;68257;43.514;1.498;2023-11-21T00:47:09;8.50;;;1.60;;
78877;SDS011;68257;43.514;1.498;2023-11-21T00:49:35;8.73;;;1.90;;
78877;SDS011;68257;43.514;1.498;2023-11-21T00:52:00;11.67;;;1.60;;
78877;SDS011;68257;43.514;1.498;2023-11-21T00:54:27;11.55;;;2.70;;
78877;SDS011;68257;43.514;1.498;2023-11-21T00:56:52;10.85;;;1.85;;
78877;SDS011;68257;43.514;1.498;2023-11-21T00:59:17;8.20;;;1.13;;
78877;SDS011;68257;43.514;1.498;2023-11-21T01:01:43;7.90;;;1.37;;
78877;SDS011;68257;43.514;1.498;2023-11-21T01:04:09;10.35;;;1.60;;
78877;SDS011;68257;43.514;1.498;2023-11-21T01:06:34;12.13;;;1.30;;
78877;SDS011;68257;43.514;1.498;2023-11-21T01:09:00;9.80;;;1.33;;
78877;SDS011;68257;43.514;1.498;2023-11-21T01:11:25;9.87;;;1.40;;
78877;SDS011;68257;43.514;1.498;2023-11-21T01:13:51;10.43;;;1.50;;
78877;SDS011;68257;43.514;1.498;2023-11-21T01:16:17;10.18;;;1.25;;
78877;SDS011;68257;43.514;1.498;2023-11-21T01:18:42;9.10;;;1.23;;
78877;SDS011;68257;43.514;1.498;2023-11-21T01:21:08;8.93;;;1.40;;
78877;SDS011;68257;43.514;1.498;2023-11-21T01:23:34;12.48;;;1.60;;
78877;SDS011;68257;43.514;1.498;2023-11-21T01:26:00;9.53;;;1.30;;
78877;SDS011;68257;43.514;1.498;2023-11-21T01:28:25;11.90;;;2.33;;
78877;SDS011;68257;43.514;1.498;2023-11-21T01:30:51;11.43;;;1.33;;
78877;SDS011;68257;43.514;1.498;2023-11-21T01:33:18;8.70;;;1.20;;
78877;SDS011;68257;43.514;1.498;2023-11-21T01:35:43;10.30;;;1.17;;
78877;SDS011;68257;43.514;1.498;2023-11-21T01:38:09;8.38;;;1.67;;
78877;SDS011;68257;43.514;1.498;2023-11-21T01:40:35;8.17;;;1.23;;
78877;SDS011;68257;43.514;1.498;2023-11-21T01:43:00;10.52;;;1.60;;
78877;SDS011;68257;43.514;1.498;2023-11-21T01:45:28;10.73;;;1.53;;
78877;SDS011;68257;43.514;1.498;2023-11-21T01:47:56;7.75;;;1.30;;
78877;SDS011;68257;43.514;1.498;2023-11-21T01:50:21;6.13;;;1.15;;
78877;SDS011;68257;43.514;1.498;2023-11-21T01:52:47;8.25;;;1.50;;
78877;SDS011;68257;43.514;1.498;2023-11-21T01:55:14;6.90;;;1.17;;
78877;SDS011;68257;43.514;1.498;2023-11-21T01:57:43;8.48;;;1.10;;
78877;SDS011;68257;43.514;1.498;2023-11-21T02:00:09;8.43;;;1.63;;
78877;SDS011;68257;43.514;1.498;2023-11-21T02:02:47;8.90;;;1.63;;
78877;SDS011;68257;43.514;1.498;2023-11-21T02:05:16;8.85;;;1.40;;
78877;SDS011;68257;43.514;1.498;2023-11-21T02:07:47;9.00;;;1.13;;
78877;SDS011;68257;43.514;1.498;2023-11-21T02:10:13;10.33;;;1.10;;
78877;SDS011;68257;43.514;1.498;2023-11-21T02:12:42;7.32;;;1.10;;
78877;SDS011;68257;43.514;1.498;2023-11-21T02:15:08;5.65;;;1.05;;
78877;SDS011;68257;43.514;1.498;2023-11-21T02:17:41;7.25;;;1.15;;
78877;SDS011;68257;43.514;1.498;2023-11-21T02:20:09;7.97;;;1.27;;
78877;SDS011;68257;43.514;1.498;2023-11-21T02:22:40;6.45;;;1.15;;
78877;SDS011;68257;43.514;1.498;2023-11-21T02:25:07;7.60;;;0.98;;
78877;SDS011;68257;43.514;1.498;2023-11-21T02:27:32;5.63;;;0.90;;
78877;SDS011;68257;43.514;1.498;2023-11-21T02:29:58;9.07;;;1.07;;
78877;SDS011;68257;43.514;1.498;2023-11-21T02:32:24;5.10;;;1.00;;
78877;SDS011;68257;43.514;1.498;2023-11-21T02:34:51;6.40;;;1.00;;
78877;SDS011;68257;43.514;1.498;2023-11-21T02:37:16;8.95;;;1.20;;
78877;SDS011;68257;43.514;1.498;2023-11-21T02:39:41;7.47;;;1.17;;
78877;SDS011;68257;43.514;1.498;2023-11-21T02:42:07;9.17;;;1.50;;
78877;SDS011;68257;43.514;1.498;2023-11-21T02:44:32;8.70;;;2.03;;
78877;SDS011;68257;43.514;1.498;2023-11-21T02:46:58;8.25;;;1.58;;
78877;SDS011;68257;43.514;1.498;2023-11-21T02:49:25;6.87;;;1.80;;
78877;SDS011;68257;43.514;1.498;2023-11-21T02:51:53;8.57;;;1.50;;
78877;SDS011;68257;43.514;1.498;2023-11-21T02:54:19;6.85;;;1.45;;
78877;SDS011;68257;43.514;1.498;2023-11-21T02:56:46;7.47;;;1.80;;
78877;SDS011;68257;43.514;1.498;2023-11-21T02:59:12;8.80;;;1.73;;
78877;SDS011;68257;43.514;1.498;2023-11-21T03:01:37;9.02;;;1.90;;
78877;SDS011;68257;43.514;1.498;2023-11-21T03:04:03;5.85;;;1.20;;
78877;SDS011;68257;43.514;1.498;2023-11-21T03:06:28;8.27;;;1.30;;
78877;SDS011;68257;43.514;1.498;2023-11-21T03:08:54;6.57;;;1.20;;
78877;SDS011;68257;43.514;1.498;2023-11-21T03:11:19;6.43;;;1.20;;
78877;SDS011;68257;43.514;1.498;2023-11-21T03:13:45;7.55;;;1.30;;
78877;SDS011;68257;43.514;1.498;2023-11-21T03:16:10;5.18;;;1.30;;
78877;SDS011;68257;43.514;1.498;2023-11-21T03:18:36;6.73;;;1.47;;
78877;SDS011;68257;43.514;1.498;2023-11-21T03:21:03;6.97;;;1.00;;
78877;SDS011;68257;43.514;1.498;2023-11-21T03:23:29;7.72;;;1.20;;
78877;SDS011;68257;43.514;1.498;2023-11-21T03:25:54;6.53;;;0.97;;
78877;SDS011;68257;43.514;1.498;2023-11-21T03:28:23;8.27;;;1.33;;
78877;SDS011;68257;43.514;1.498;2023-11-21T03:30:48;7.95;;;1.30;;
78877;SDS011;68257;43.514;1.498;2023-11-21T03:33:14;6.03;;;0.90;;
78877;SDS011;68257;43.514;1.498;2023-11-21T03:35:39;7.05;;;1.02;;
78877;SDS011;68257;43.514;1.498;2023-11-21T03:38:07;8.35;;;1.35;;
78877;SDS011;68257;43.514;1.498;2023-11-21T03:40:32;6.43;;;1.35;;
78877;SDS011;68257;43.514;1.498;2023-11-21T03:42:58;6.27;;;1.10;;
78877;SDS011;68257;43.514;1.498;2023-11-21T03:45:23;6.68;;;1.30;;
78877;SDS011;68257;43.514;1.498;2023-11-21T03:47:49;5.10;;;0.70;;
78877;SDS011;68257;43.514;1.498;2023-11-21T03:50:15;7.57;;;0.90;;
78877;SDS011;68257;43.514;1.498;2023-11-21T03:52:40;7.47;;;0.98;;
78877;SDS011;68257;43.514;1.498;2023-11-21T03:55:06;5.53;;;1.00;;
78877;SDS011;68257;43.514;1.498;2023-11-21T03:57:31;8.93;;;1.17;;
78877;SDS011;68257;43.514;1.498;2023-11-21T03:59:56;8.17;;;1.10;;
78877;SDS011;68257;43.514;1.498;2023-11-21T04:02:22;9.43;;;1.13;;
78877;SDS011;68257;43.514;1.498;2023-11-21T04:04:47;6.50;;;1.10;;
78877;SDS011;68257;43.514;1.498;2023-11-21T04:07:12;8.52;;;0.95;;
78877;SDS011;68257;43.514;1.498;2023-11-21T04:09:38;4.37;;;0.90;;
78877;SDS011;68257;43.514;1.498;2023-11-21T04:12:04;6.35;;;1.20;;
78877;SDS011;68257;43.514;1.498;2023-11-21T04:14:30;9.53;;;1.13;;
78877;SDS011;68257;43.514;1.498;2023-11-21T04:16:55;8.10;;;1.10;;
78877;SDS011;68257;43.514;1.498;2023-11-21T04:19:20;5.60;;;1.00;;
78877;SDS011;68257;43.514;1.498;2023-11-21T04:21:46;6.85;;;1.00;;
78877;SDS011;68257;43.514;1.498;2023-11-21T04:24:11;6.50;;;0.97;;
78877;SDS011;68257;43.514;1.498;2023-11-21T04:26:37;10.30;;;1.07;;
78877;SDS011;68257;43.514;1.498;2023-11-21T04:29:03;7.43;;;0.98;;
78877;SDS011;68257;43.514;1.498;2023-11-21T04:31:29;7.75;;;0.90;;
78877;SDS011;68257;43.514;1.498;2023-11-21T04:33:55;7.18;;;0.88;;
78877;SDS011;68257;43.514;1.498;2023-11-21T04:36:20;5.47;;;0.80;;
78877;SDS011;68257;43.514;1.498;2023-11-21T04:38:46;5.63;;;1.00;;
78877;SDS011;68257;43.514;1.498;2023-11-21T04:41:11;7.77;;;0.80;;
78877;SDS011;68257;43.514;1.498;2023-11-21T04:43:37;11.80;;;2.15;;
78877;SDS011;68257;43.514;1.498;2023-11-21T04:46:05;5.70;;;0.90;;
78877;SDS011;68257;43.514;1.498;2023-11-21T04:48:31;8.88;;;1.05;;
78877;SDS011;68257;43.514;1.498;2023-11-21T04:50:57;8.43;;;1.03;;
78877;SDS011;68257;43.514;1.498;2023-11-21T04:53:22;6.53;;;1.15;;
78877;SDS011;68257;43.514;1.498;2023-11-21T04:55:48;6.23;;;0.80;;
78877;SDS011;68257;43.514;1.498;2023-11-21T04:58:13;5.80;;;1.10;;
78877;SDS011;68257;43.514;1.498;2023-11-21T05:00:39;8.60;;;0.90;;
78877;SDS011;68257;43.514;1.498;2023-11-21T05:03:06;6.45;;;0.90;;
78877;SDS011;68257;43.514;1.498;2023-11-21T05:05:32;9.17;;;1.20;;
78877;SDS011;68257;43.514;1.498;2023-11-21T05:07:58;6.57;;;0.82;;
78877;SDS011;68257;43.514;1.498;2023-11-21T05:10:26;5.53;;;0.80;;
78877;SDS011;68257;43.514;1.498;2023-11-21T05:12:52;6.00;;;0.90;;
78877;SDS011;68257;43.514;1.498;2023-11-21T05:15:17;6.87;;;0.90;;
78877;SDS011;68257;43.514;1.498;2023-11-21T05:17:43;5.13;;;0.70;;
78877;SDS011;68257;43.514;1.498;2023-11-21T05:20:12;5.93;;;0.80;;
78877;SDS011;68257;43.514;1.498;2023-11-21T05:22:39;5.22;;;0.82;;
78877;SDS011;68257;43.514;1.498;2023-11-21T05:25:05;8.50;;;1.40;;
78877;SDS011;68257;43.514;1.498;2023-11-21T05:27:35;5.82;;;0.85;;
78877;SDS011;68257;43.514;1.498;2023-11-21T05:30:01;9.83;;;0.97;;
78877;SDS011;68257;43.514;1.498;2023-11-21T05:32:27;8.18;;;0.70;;
78877;SDS011;68257;43.514;1.498;2023-11-21T05:34:53;4.87;;;0.80;;
78877;SDS011;68257;43.514;1.498;2023-11-21T05:37:18;4.67;;;0.80;;
78877;SDS011;68257;43.514;1.498;2023-11-21T05:39:43;5.75;;;0.85;;
78877;SDS011;68257;43.514;1.498;2023-11-21T05:42:09;7.60;;;1.00;;
78877;SDS011;68257;43.514;1.498;2023-11-21T05:44:38;5.60;;;0.90;;
78877;SDS011;68257;43.514;1.498;2023-11-21T05:47:07;5.70;;;0.90;;
78877;SDS011;68257;43.514;1.498;2023-11-21T05:49:32;5.00;;;0.70;;
78877;SDS011;68257;43.514;1.498;2023-11-21T05:51:58;5.25;;;0.90;;
78877;SDS011;68257;43.514;1.498;2023-11-21T05:54:24;4.85;;;0.77;;
78877;SDS011;68257;43.514;1.498;2023-11-21T05:56:50;6.23;;;0.60;;
78877;SDS011;68257;43.514;1.498;2023-11-21T05:59:15;4.57;;;0.55;;
78877;SDS011;68257;43.514;1.498;2023-11-21T06:01:41;5.05;;;0.70;;
78877;SDS011;68257;43.514;1.498;2023-11-21T06:04:06;5.60;;;0.80;;
78877;SDS011;68257;43.514;1.498;2023-11-21T06:06:34;5.37;;;0.80;;
78877;SDS011;68257;43.514;1.498;2023-11-21T06:09:00;6.95;;;1.00;;
78877;SDS011;68257;43.514;1.498;2023-11-21T06:11:25;6.07;;;0.80;;
78877;SDS011;68257;43.514;1.498;2023-11-21T06:13:50;5.20;;;0.90;;
78877;SDS011;68257;43.514;1.498;2023-11-21T06:16:18;7.00;;;0.98;;
78877;SDS011;68257;43.514;1.498;2023-11-21T06:18:45;5.57;;;0.90;;
78877;SDS011;68257;43.514;1.498;2023-11-21T06:21:11;5.72;;;1.30;;
78877;SDS011;68257;43.514;1.498;2023-11-21T06:23:36;6.20;;;1.00;;
78877;SDS011;68257;43.514;1.498;2023-11-21T06:26:02;5.20;;;0.73;;
78877;SDS011;68257;43.514;1.498;2023-11-21T06:28:28;4.43;;;0.82;;
78877;SDS011;68257;43.514;1.498;2023-11-21T06:30:53;5.63;;;1.10;;
78877;SDS011;68257;43.514;1.498;2023-11-21T06:33:19;15.05;;;1.13;;
78877;SDS011;68257;43.514;1.498;2023-11-21T06:35:45;4.80;;;0.73;;
78877;SDS011;68257;43.514;1.498;2023-11-21T06:38:10;6.37;;;0.80;;
78877;SDS011;68257;43.514;1.498;2023-11-21T06:40:35;6.33;;;0.80;;
78877;SDS011;68257;43.514;1.498;2023-11-21T06:43:01;4.95;;;0.70;;
78877;SDS011;68257;43.514;1.498;2023-11-21T06:45:26;7.60;;;1.23;;
78877;SDS011;68257;43.514;1.498;2023-11-21T06:47:52;8.38;;;1.08;;
78877;SDS011;68257;43.514;1.498;2023-11-21T06:50:18;6.00;;;0.80;;
78877;SDS011;68257;43.514;1.498;2023-11-21T06:52:43;7.03;;;1.23;;
78877;SDS011;68257;43.514;1.498;2023-11-21T06:55:08;8.43;;;1.00;;
78877;SDS011;68257;43.514;1.498;2023-11-21T06:57:34;6.70;;;1.10;;
78877;SDS011;68257;43.514;1.498;2023-11-21T07:00:00;6.90;;;1.53;;
78877;SDS011;68257;43.514;1.498;2023-11-21T07:02:25;4.73;;;0.80;;
78877;SDS011;68257;43.514;1.498;2023-11-21T07:04:51;4.80;;;0.80;;
78877;SDS011;68257;43.514;1.498;2023-11-21T07:07:16;6.07;;;2.00;;
78877;SDS011;68257;43.514;1.498;2023-11-21T07:09:42;7.77;;;1.70;;
78877;SDS011;68257;43.514;1.498;2023-11-21T07:12:08;5.07;;;0.95;;
78877;SDS011;68257;43.514;1.498;2023-11-21T07:14:36;6.47;;;1.30;;
78877;SDS011;68257;43.514;1.498;2023-11-21T07:17:04;5.37;;;1.40;;
78877;SDS011;68257;43.514;1.498;2023-11-21T07:19:29;6.22;;;0.90;;
78877;SDS011;68257;43.514;1.498;2023-11-21T07:21:55;5.73;;;1.10;;
78877;SDS011;68257;43.514;1.498;2023-11-21T07:24:21;4.63;;;1.00;;
78877;SDS011;68257;43.514;1.498;2023-11-21T07:26:48;4.53;;;0.90;;
78877;SDS011;68257;43.514;1.498;2023-11-21T07:29:13;4.10;;;1.00;;
78877;SDS011;68257;43.514;1.498;2023-11-21T07:31:39;4.07;;;1.00;;
78877;SDS011;68257;43.514;1.498;2023-11-21T07:34:06;5.53;;;0.90;;
78877;SDS011;68257;43.514;1.498;2023-11-21T07:36:32;4.60;;;0.90;;
78877;SDS011;68257;43.514;1.498;2023-11-21T07:38:58;3.85;;;1.38;;
78877;SDS011;68257;43.514;1.498;2023-11-21T07:41:23;5.70;;;0.93;;
78877;SDS011;68257;43.514;1.498;2023-11-21T07:43:48;3.87;;;0.83;;
78877;SDS011;68257;43.514;1.498;2023-11-21T07:46:14;5.97;;;1.10;;
78877;SDS011;68257;43.514;1.498;2023-11-21T07:48:39;6.17;;;1.07;;
78877;SDS011;68257;43.514;1.498;2023-11-21T07:51:07;5.55;;;1.30;;
78877;SDS011;68257;43.514;1.498;2023-11-21T07:53:33;4.72;;;1.02;;
78877;SDS011;68257;43.514;1.498;2023-11-21T07:56:03;7.10;;;1.00;;
78877;SDS011;68257;43.514;1.498;2023-11-21T07:58:29;4.88;;;0.85;;
78877;SDS011;68257;43.514;1.498;2023-11-21T08:00:54;5.67;;;1.30;;
78877;SDS011;68257;43.514;1.498;2023-11-21T08:03:20;6.55;;;1.20;;
78877;SDS011;68257;43.514;1.498;2023-11-21T08:05:46;5.85;;;1.27;;
78877;SDS011;68257;43.514;1.498;2023-11-21T08:08:11;4.25;;;1.10;;
78877;SDS011;68257;43.514;1.498;2023-11-21T08:10:36;5.50;;;1.10;;
78877;SDS011;68257;43.514;1.498;2023-11-21T08:13:02;5.27;;;1.63;;
78877;SDS011;68257;43.514;1.498;2023-11-21T08:15:28;3.75;;;1.00;;
78877;SDS011;68257;43.514;1.498;2023-11-21T08:17:54;7.60;;;1.40;;
78877;SDS011;68257;43.514;1.498;2023-11-21T08:20:19;8.33;;;1.70;;
78877;SDS011;68257;43.514;1.498;2023-11-21T08:22:45;6.77;;;1.50;;
78877;SDS011;68257;43.514;1.498;2023-11-21T08:25:12;4.60;;;1.60;;
78877;SDS011;68257;43.514;1.498;2023-11-21T08:27:38;5.40;;;1.40;;
78877;SDS011;68257;43.514;1.498;2023-11-21T08:30:04;6.17;;;1.70;;
78877;SDS011;68257;43.514;1.498;2023-11-21T08:32:29;3.92;;;1.10;;
78877;SDS011;68257;43.514;1.498;2023-11-21T08:34:58;5.65;;;1.48;;
78877;SDS011;68257;43.514;1.498;2023-11-21T08:37:24;3.83;;;1.00;;
78877;SDS011;68257;43.514;1.498;2023-11-21T08:39:52;4.00;;;1.40;;
78877;SDS011;68257;43.514;1.498;2023-11-21T08:42:18;4.38;;;1.50;;
78877;SDS011;68257;43.514;1.498;2023-11-21T08:44:43;5.87;;;1.83;;
78877;SDS011;68257;43.514;1.498;2023-11-21T08:47:09;5.13;;;1.80;;
78877;SDS011;68257;43.514;1.498;2023-11-21T08:49:34;6.60;;;2.05;;
78877;SDS011;68257;43.514;1.498;2023-11-21T08:51:59;6.17;;;1.70;;
78877;SDS011;68257;43.514;1.498;2023-11-21T08:54:25;7.27;;;2.00;;
78877;SDS011;68257;43.514;1.498;2023-11-21T08:56:54;5.47;;;1.23;;
78877;SDS011;68257;43.514;1.498;2023-11-21T08:59:20;4.45;;;1.25;;
78877;SDS011;68257;43.514;1.498;2023-11-21T09:01:45;4.80;;;1.20;;
78877;SDS011;68257;43.514;1.498;2023-11-21T09:04:11;3.70;;;1.10;;
78877;SDS011;68257;43.514;1.498;2023-11-21T09:06:37;4.45;;;1.23;;
78877;SDS011;68257;43.514;1.498;2023-11-21T09:09:03;2.67;;;1.00;;
78877;SDS011;68257;43.514;1.498;2023-11-21T09:11:30;3.30;;;1.15;;
78877;SDS011;68257;43.514;1.498;2023-11-21T09:13:58;3.85;;;1.10;;
78877;SDS011;68257;43.514;1.498;2023-11-21T09:16:24;4.37;;;1.30;;
78877;SDS011;68257;43.514;1.498;2023-11-21T09:18:50;4.43;;;1.20;;
78877;SDS011;68257;43.514;1.498;2023-11-21T09:21:15;4.37;;;1.47;;
78877;SDS011;68257;43.514;1.498;2023-11-21T09:23:40;3.13;;;0.90;;
78877;SDS011;68257;43.514;1.498;2023-11-21T09:26:06;3.63;;;1.20;;
78877;SDS011;68257;43.514;1.498;2023-11-21T09:28:31;3.97;;;1.20;;
78877;SDS011;68257;43.514;1.498;2023-11-21T09:30:57;6.55;;;1.30;;
78877;SDS011;68257;43.514;1.498;2023-11-21T09:33:22;3.10;;;0.70;;
78877;SDS011;68257;43.514;1.498;2023-11-21T09:35:49;2.97;;;1.07;;
78877;SDS011;68257;43.514;1.498;2023-11-21T09:38:16;4.93;;;1.50;;
78877;SDS011;68257;43.514;1.498;2023-11-21T09:40:41;5.18;;;1.10;;
78877;SDS011;68257;43.514;1.498;2023-11-21T09:43:08;4.20;;;1.00;;
78877;SDS011;68257;43.514;1.498;2023-11-21T09:45:41;3.37;;;1.10;;
78877;SDS011;68257;43.514;1.498;2023-11-21T09:48:10;4.30;;;1.40;;
78877;SDS011;68257;43.514;1.498;2023-11-21T09:50:36;5.38;;;1.60;;
78877;SDS011;68257;43.514;1.498;2023-11-21T09:53:09;3.00;;;1.10;;
78877;SDS011;68257;43.514;1.498;2023-11-21T09:55:36;4.00;;;1.27;;
78877;SDS011;68257;43.514;1.498;2023-11-21T09:58:04;3.90;;;1.27;;
78877;SDS011;68257;43.514;1.498;2023-11-21T10:00:32;4.35;;;1.40;;
78877;SDS011;68257;43.514;1.498;2023-11-21T10:02:58;4.17;;;1.63;;
78877;SDS011;68257;43.514;1.498;2023-11-21T10:05:24;8.38;;;4.78;;
78877;SDS011;68257;43.514;1.498;2023-11-21T10:07:50;5.50;;;1.90;;
78877;SDS011;68257;43.514;1.498;2023-11-21T10:10:16;4.22;;;1.50;;
78877;SDS011;68257;43.514;1.498;2023-11-21T10:12:43;4.90;;;2.17;;
78877;SDS011;68257;43.514;1.498;2023-11-21T10:15:12;3.43;;;1.40;;
78877;SDS011;68257;43.514;1.498;2023-11-21T10:17:41;5.88;;;1.80;;
78877;SDS011;68257;43.514;1.498;2023-11-21T10:20:13;4.07;;;1.30;;
78877;SDS011;68257;43.514;1.498;2023-11-21T10:22:42;6.57;;;1.52;;
78877;SDS011;68257;43.514;1.498;2023-11-21T10:25:12;4.10;;;1.55;;
78877;SDS011;68257;43.514;1.498;2023-11-21T10:27:41;5.20;;;2.17;;
78877;SDS011;68257;43.514;1.498;2023-11-21T10:30:08;4.05;;;1.58;;
78877;SDS011;68257;43.514;1.498;2023-11-21T10:32:40;4.07;;;1.50;;
78877;SDS011;68257;43.514;1.498;2023-11-21T10:35:06;3.13;;;1.23;;
78877;SDS011;68257;43.514;1.498;2023-11-21T10:37:35;3.88;;;1.48;;
78877;SDS011;68257;43.514;1.498;2023-11-21T10:40:10;4.10;;;1.60;;
78877;SDS011;68257;43.514;1.498;2023-11-21T10:42:37;3.70;;;1.30;;
78877;SDS011;68257;43.514;1.498;2023-11-21T10:45:03;6.03;;;2.25;;
78877;SDS011;68257;43.514;1.498;2023-11-21T10:47:34;4.88;;;1.75;;
78877;SDS011;68257;43.514;1.498;2023-11-21T10:50:01;7.80;;;3.72;;
78877;SDS011;68257;43.514;1.498;2023-11-21T10:52:27;8.10;;;4.00;;
78877;SDS011;68257;43.514;1.498;2023-11-21T10:54:52;5.65;;;3.25;;
78877;SDS011;68257;43.514;1.498;2023-11-21T10:57:18;5.37;;;2.97;;
78877;SDS011;68257;43.514;1.498;2023-11-21T10:59:47;7.38;;;3.90;;
78877;SDS011;68257;43.514;1.498;2023-11-21T11:02:23;5.77;;;2.90;;
78877;SDS011;68257;43.514;1.498;2023-11-21T11:04:53;4.38;;;2.17;;
78877;SDS011;68257;43.514;1.498;2023-11-21T11:07:26;5.10;;;1.90;;
78877;SDS011;68257;43.514;1.498;2023-11-21T11:09:53;3.60;;;1.10;;
78877;SDS011;68257;43.514;1.498;2023-11-21T11:12:19;3.45;;;1.80;;
78877;SDS011;68257;43.514;1.498;2023-11-21T11:14:45;4.30;;;1.80;;
78877;SDS011;68257;43.514;1.498;2023-11-21T11:17:10;4.80;;;2.30;;
78877;SDS011;68257;43.514;1.498;2023-11-21T11:19:36;8.87;;;4.03;;
78877;SDS011;68257;43.514;1.498;2023-11-21T11:22:10;7.15;;;2.60;;
78877;SDS011;68257;43.514;1.498;2023-11-21T11:33:38;4.75;;;1.70;;
78877;SDS011;68257;43.514;1.498;2023-11-21T11:36:29;3.97;;;1.92;;
78877;SDS011;68257;43.514;1.498;2023-11-21T11:38:57;6.72;;;2.70;;
78877;SDS011;68257;43.514;1.498;2023-11-21T11:41:24;5.80;;;1.95;;
78877;SDS011;68257;43.514;1.498;2023-11-21T11:43:51;4.80;;;1.50;;
78877;SDS011;68257;43.514;1.498;2023-11-21T11:46:17;5.63;;;1.95;;
78877;SDS011;68257;43.514;1.498;2023-11-21T11:48:42;3.00;;;1.60;;
78877;SDS011;68257;43.514;1.498;2023-11-21T11:51:11;3.17;;;1.67;;
78877;SDS011;68257;43.514;1.498;2023-11-21T11:53:40;3.77;;;1.50;;
78877;SDS011;68257;43.514;1.498;2023-11-21T11:58:44;4.10;;;2.08;;
78877;SDS011;68257;43.514;1.498;2023-11-21T12:01:10;3.85;;;1.90;;
78877;SDS011;68257;43.514;1.498;2023-11-21T12:03:36;6.23;;;2.10;;
78877;SDS011;68257;43.514;1.498;2023-11-21T12:06:02;3.95;;;1.75;;
78877;SDS011;68257;43.514;1.498;2023-11-21T12:08:28;5.30;;;2.40;;
78877;SDS011;68257;43.514;1.498;2023-11-21T12:10:56;5.75;;;2.80;;
78877;SDS011;68257;43.514;1.498;2023-11-21T12:13:22;5.55;;;2.25;;
78877;SDS011;68257;43.514;1.498;2023-11-21T12:15:51;4.60;;;2.30;;
78877;SDS011;68257;43.514;1.498;2023-11-21T12:18:16;4.05;;;1.83;;
78877;SDS011;68257;43.514;1.498;2023-11-21T12:20:42;4.93;;;2.17;;
78877;SDS011;68257;43.514;1.498;2023-11-21T12:23:11;6.13;;;2.20;;
78877;SDS011;68257;43.514;1.498;2023-11-21T12:25:39;3.88;;;1.70;;
78877;SDS011;68257;43.514;1.498;2023-11-21T12:28:06;4.65;;;1.52;;
78877;SDS011;68257;43.514;1.498;2023-11-21T12:30:32;5.80;;;1.67;;
78877;SDS011;68257;43.514;1.498;2023-11-21T12:33:03;5.53;;;2.30;;
78877;SDS011;68257;43.514;1.498;2023-11-21T12:35:29;3.97;;;1.88;;
78877;SDS011;68257;43.514;1.498;2023-11-21T12:37:56;3.20;;;1.40;;
78877;SDS011;68257;43.514;1.498;2023-11-21T12:40:24;4.15;;;1.70;;
78877;SDS011;68257;43.514;1.498;2023-11-21T12:42:54;3.53;;;1.45;;
78877;SDS011;68257;43.514;1.498;2023-11-21T12:45:27;3.72;;;1.70;;
78877;SDS011;68257;43.514;1.498;2023-11-21T12:50:25;10.33;;;4.77;;
78877;SDS011;68257;43.514;1.498;2023-11-21T12:52:57;5.72;;;2.58;;
78877;SDS011;68257;43.514;1.498;2023-11-21T12:55:23;3.28;;;1.42;;
78877;SDS011;68257;43.514;1.498;2023-11-21T12:57:50;3.60;;;1.40;;
78877;SDS011;68257;43.514;1.498;2023-11-21T13:00:17;4.07;;;1.17;;
78877;SDS011;68257;43.514;1.498;2023-11-21T13:02:52;6.03;;;3.60;;
78877;SDS011;68257;43.514;1.498;2023-11-21T13:05:35;4.45;;;1.23;;
78877;SDS011;68257;43.514;1.498;2023-11-21T13:08:04;3.80;;;1.60;;
78877;SDS011;68257;43.514;1.498;2023-11-21T13:10:32;4.93;;;2.40;;
78877;SDS011;68257;43.514;1.498;2023-11-21T13:13:01;4.10;;;1.60;;
78877;SDS011;68257;43.514;1.498;2023-11-21T13:15:30;4.75;;;2.90;;
78877;SDS011;68257;43.514;1.498;2023-11-21T13:17:56;4.25;;;1.70;;
78877;SDS011;68257;43.514;1.498;2023-11-21T13:20:22;3.63;;;1.77;;
78877;SDS011;68257;43.514;1.498;2023-11-21T13:25:20;3.33;;;1.55;;
78877;SDS011;68257;43.514;1.498;2023-11-21T13:27:46;4.47;;;1.75;;
78877;SDS011;68257;43.514;1.498;2023-11-21T13:30:15;3.53;;;1.77;;
78877;SDS011;68257;43.514;1.498;2023-11-21T13:32:42;5.90;;;2.10;;
78877;SDS011;68257;43.514;1.498;2023-11-21T13:35:08;5.25;;;1.60;;
78877;SDS011;68257;43.514;1.498;2023-11-21T13:37:40;4.30;;;1.90;;
78877;SDS011;68257;43.514;1.498;2023-11-21T13:40:05;5.70;;;2.00;;
78877;SDS011;68257;43.514;1.498;2023-11-21T13:42:39;6.03;;;2.10;;
78877;SDS011;68257;43.514;1.498;2023-11-21T13:45:06;4.10;;;2.00;;
78877;SDS011;68257;43.514;1.498;2023-11-21T13:47:32;5.30;;;1.50;;
78877;SDS011;68257;43.514;1.498;2023-11-21T13:49:59;4.65;;;1.92;;
78877;SDS011;68257;43.514;1.498;2023-11-21T13:52:28;4.13;;;1.50;;
78877;SDS011;68257;43.514;1.498;2023-11-21T13:54:56;4.55;;;1.70;;
78877;SDS011;68257;43.514;1.498;2023-11-21T13:57:22;4.20;;;1.57;;
78877;SDS011;68257;43.514;1.498;2023-11-21T13:59:47;5.20;;;2.20;;
78877;SDS011;68257;43.514;1.498;2023-11-21T14:02:12;4.50;;;1.90;;
78877;SDS011;68257;43.514;1.498;2023-11-21T14:04:42;5.40;;;2.10;;
78877;SDS011;68257;43.514;1.498;2023-11-21T14:07:21;3.85;;;1.80;;
78877;SDS011;68257;43.514;1.498;2023-11-21T14:09:56;4.10;;;1.63;;
78877;SDS011;68257;43.514;1.498;2023-11-21T14:12:23;4.82;;;1.65;;
78877;SDS011;68257;43.514;1.498;2023-11-21T14:14:49;3.97;;;1.92;;
78877;SDS011;68257;43.514;1.498;2023-11-21T14:17:14;4.63;;;1.90;;
78877;SDS011;68257;43.514;1.498;2023-11-21T14:19:40;4.80;;;1.80;;
78877;SDS011;68257;43.514;1.498;2023-11-21T14:22:08;4.07;;;1.70;;
78877;SDS011;68257;43.514;1.498;2023-11-21T14:24:36;4.35;;;1.70;;
78877;SDS011;68257;43.514;1.498;2023-11-21T14:27:02;4.77;;;2.17;;
78877;SDS011;68257;43.514;1.498;2023-11-21T14:29:28;4.38;;;2.10;;
78877;SDS011;68257;43.514;1.498;2023-11-21T14:31:54;4.07;;;1.90;;
78877;SDS011;68257;43.514;1.498;2023-11-21T14:34:22;4.45;;;1.75;;
78877;SDS011;68257;43.514;1.498;2023-11-21T14:36:48;4.95;;;2.03;;
78877;SDS011;68257;43.514;1.498;2023-11-21T14:39:14;3.60;;;1.70;;
78877;SDS011;68257;43.514;1.498;2023-11-21T14:41:51;5.07;;;1.87;;
78877;SDS011;68257;43.514;1.498;2023-11-21T14:44:19;5.40;;;2.00;;
78877;SDS011;68257;43.514;1.498;2023-11-21T14:46:45;5.07;;;2.05;;
78877;SDS011;68257;43.514;1.498;2023-11-21T14:49:15;4.65;;;2.10;;
78877;SDS011;68257;43.514;1.498;2023-11-21T14:51:48;7.22;;;3.65;;
78877;SDS011;68257;43.514;1.498;2023-11-21T14:54:32;6.80;;;3.70;;
78877;SDS011;68257;43.514;1.498;2023-11-21T14:57:04;6.38;;;3.22;;
78877;SDS011;68257;43.514;1.498;2023-11-21T14:59:32;8.40;;;3.10;;